UTC: 02.12.2020 06:43:00
ilmateenistus.ee keskkonnaagentuur.ee
EETN Tallinn
FTEO31 EETN 020500
TAF EETN 020520Z 0206/0306 17010KT 9999 SCT040 TEMPO 0206/0208 4000
    BR SCT006 BECMG 0222/0224 BKN020=

METAR EETN 020620Z 17009KT 7000 FEW007 M00/M01 Q1029 R08/290195 TEMPO 4000 BR=
Tallinn
EEKA Kärdla
FCEO32 EETN 020400
TAF EEKA 020400Z 0205/0211 18010KT 9999 BKN030 PROB40 TEMPO 0205/0509
    BKN008 SCT015CB=

METAR EEKA 020620Z 18007KT CAVOK 02/M00 Q1028=
Kärdla
EEKE Kuressaare
FCEO32 EETN 020600
TAF EEKE 020600Z 0207/0213 17010KT 9999 SCT015 BKN045 TEMPO 0207/0210
    BKN008 PROB40 TEMPO 0207/0209 3000 BR=

METAR EEKE 020620Z 18009KT 9000 SCT013 00/M01 Q1028=
Kuressaare
EEPU Pärnu
METAR EEPU 020620Z NIL=
Pärnu
EETU Tartu
METAR EETU 020620Z AUTO 13004KT 9999 OVC009/// M01/M02 Q1031=
Tartu
EEEI Ämari
SPECI EEEI 020620Z 15007KT 120V180 8000 BKN006 00/M01 Q1029 R24/290095=
Ämari